Newtown, Connecticut
Current Conditions -  °F | °C
As of 11:53 PM on Thursday 30 Oct 2014 (Local Time) from KDXR Reporting Station
Overcast Overcast  
Wind Chill: 43°   Ceiling: 4400
Heat Index: 46°   Visibility: 10mi
Dew Point: 33°   Wind: 6mph
Humidity: 61%   Direction: 350°N
Pressure: 30.03"   Gusts: NA
Location:  41.41°N, 73.3°W
Report Text: KDXR 310353Z AUTO 35005KT 10SM OVC044 08/01 A3003 RMK AO2 SLP170 T00780006
Loading
Personal Weather Stations






























Interactive Weather Map
Tropical Storm Tracking
New forecast layout! Learn more

10-Day Weather Forecast

Advertisements
Track Severe Weather on mobile